sensor_id;sensor_type;location;lat;lon;timestamp;P1;durP1;ratioP1;P2;durP2;ratioP2
15567;SDS011;7885;42.596;23.044;2024-03-25T00:04:33;1.73;;;0.80;;
15567;SDS011;7885;42.596;23.044;2024-03-25T00:07:00;1.10;;;1.00;;
15567;SDS011;7885;42.596;23.044;2024-03-25T00:09:27;1.60;;;0.97;;
15567;SDS011;7885;42.596;23.044;2024-03-25T00:11:55;1.80;;;0.90;;
15567;SDS011;7885;42.596;23.044;2024-03-25T00:14:20;1.13;;;0.97;;
15567;SDS011;7885;42.596;23.044;2024-03-25T00:16:47;1.40;;;1.00;;
15567;SDS011;7885;42.596;23.044;2024-03-25T00:19:14;1.00;;;0.83;;
15567;SDS011;7885;42.596;23.044;2024-03-25T00:21:41;1.20;;;0.93;;
15567;SDS011;7885;42.596;23.044;2024-03-25T00:24:07;1.50;;;0.90;;
15567;SDS011;7885;42.596;23.044;2024-03-25T00:26:34;1.30;;;1.20;;
15567;SDS011;7885;42.596;23.044;2024-03-25T00:29:01;2.40;;;2.20;;
15567;SDS011;7885;42.596;23.044;2024-03-25T00:31:28;1.63;;;1.50;;
15567;SDS011;7885;42.596;23.044;2024-03-25T00:33:53;2.57;;;2.37;;
15567;SDS011;7885;42.596;23.044;2024-03-25T00:36:20;1.67;;;1.57;;
15567;SDS011;7885;42.596;23.044;2024-03-25T00:38:46;2.30;;;2.10;;
15567;SDS011;7885;42.596;23.044;2024-03-25T00:41:12;2.53;;;2.03;;
15567;SDS011;7885;42.596;23.044;2024-03-25T00:43:38;1.60;;;1.50;;
15567;SDS011;7885;42.596;23.044;2024-03-25T00:46:06;1.10;;;1.10;;
15567;SDS011;7885;42.596;23.044;2024-03-25T00:48:32;1.43;;;1.33;;
15567;SDS011;7885;42.596;23.044;2024-03-25T00:50:58;1.60;;;1.50;;
15567;SDS011;7885;42.596;23.044;2024-03-25T00:53:24;3.33;;;2.07;;
15567;SDS011;7885;42.596;23.044;2024-03-25T00:55:52;1.87;;;1.77;;
15567;SDS011;7885;42.596;23.044;2024-03-25T00:58:17;1.60;;;1.50;;
15567;SDS011;7885;42.596;23.044;2024-03-25T01:00:47;2.60;;;1.57;;
15567;SDS011;7885;42.596;23.044;2024-03-25T01:03:14;3.80;;;3.27;;
15567;SDS011;7885;42.596;23.044;2024-03-25T01:05:40;1.90;;;1.70;;
15567;SDS011;7885;42.596;23.044;2024-03-25T01:08:06;4.30;;;4.00;;
15567;SDS011;7885;42.596;23.044;2024-03-25T01:10:36;4.70;;;4.40;;
15567;SDS011;7885;42.596;23.044;2024-03-25T01:13:01;1.87;;;1.77;;
15567;SDS011;7885;42.596;23.044;2024-03-25T01:22:13;1.33;;;1.23;;
15567;SDS011;7885;42.596;23.044;2024-03-25T01:24:40;1.00;;;1.00;;
15567;SDS011;7885;42.596;23.044;2024-03-25T01:27:05;1.20;;;1.10;;
15567;SDS011;7885;42.596;23.044;2024-03-25T01:29:32;1.40;;;1.10;;
15567;SDS011;7885;42.596;23.044;2024-03-25T01:31:58;1.53;;;1.43;;
15567;SDS011;7885;42.596;23.044;2024-03-25T01:34:25;1.60;;;1.50;;
15567;SDS011;7885;42.596;23.044;2024-03-25T01:36:50;2.10;;;1.90;;
15567;SDS011;7885;42.596;23.044;2024-03-25T01:39:19;4.80;;;4.50;;
15567;SDS011;7885;42.596;23.044;2024-03-25T01:41:44;6.07;;;5.67;;
15567;SDS011;7885;42.596;23.044;2024-03-25T01:44:17;5.53;;;5.13;;
15567;SDS011;7885;42.596;23.044;2024-03-25T01:46:42;2.13;;;1.60;;
15567;SDS011;7885;42.596;23.044;2024-03-25T01:49:09;1.20;;;1.10;;
15567;SDS011;7885;42.596;23.044;2024-03-25T01:51:36;1.00;;;1.00;;
15567;SDS011;7885;42.596;23.044;2024-03-25T01:54:05;2.53;;;1.70;;
15567;SDS011;7885;42.596;23.044;2024-03-25T01:56:33;2.07;;;1.77;;
15567;SDS011;7885;42.596;23.044;2024-03-25T01:59:16;1.90;;;1.80;;
15567;SDS011;7885;42.596;23.044;2024-03-25T02:01:45;3.13;;;2.00;;
15567;SDS011;7885;42.596;23.044;2024-03-25T02:04:11;2.47;;;2.27;;
15567;SDS011;7885;42.596;23.044;2024-03-25T02:06:38;2.40;;;2.13;;
15567;SDS011;7885;42.596;23.044;2024-03-25T02:09:06;2.83;;;2.30;;
15567;SDS011;7885;42.596;23.044;2024-03-25T02:11:40;3.50;;;2.67;;
15567;SDS011;7885;42.596;23.044;2024-03-25T02:14:07;3.73;;;3.27;;
15567;SDS011;7885;42.596;23.044;2024-03-25T02:16:34;5.03;;;3.43;;
15567;SDS011;7885;42.596;23.044;2024-03-25T02:18:59;8.40;;;3.80;;
15567;SDS011;7885;42.596;23.044;2024-03-25T02:21:30;7.70;;;4.37;;
15567;SDS011;7885;42.596;23.044;2024-03-25T02:23:56;9.73;;;4.23;;
15567;SDS011;7885;42.596;23.044;2024-03-25T02:26:27;12.93;;;5.40;;
15567;SDS011;7885;42.596;23.044;2024-03-25T02:28:53;15.57;;;7.93;;
15567;SDS011;7885;42.596;23.044;2024-03-25T02:31:20;14.33;;;7.83;;
15567;SDS011;7885;42.596;23.044;2024-03-25T02:33:46;14.57;;;7.57;;
15567;SDS011;7885;42.596;23.044;2024-03-25T02:36:12;14.90;;;6.93;;
15567;SDS011;7885;42.596;23.044;2024-03-25T02:38:38;13.30;;;7.73;;
15567;SDS011;7885;42.596;23.044;2024-03-25T02:41:05;13.07;;;7.60;;
15567;SDS011;7885;42.596;23.044;2024-03-25T02:43:32;11.70;;;7.47;;
15567;SDS011;7885;42.596;23.044;2024-03-25T02:45:59;10.73;;;7.97;;
15567;SDS011;7885;42.596;23.044;2024-03-25T02:48:25;13.07;;;7.77;;
15567;SDS011;7885;42.596;23.044;2024-03-25T02:50:52;10.53;;;7.77;;
15567;SDS011;7885;42.596;23.044;2024-03-25T02:53:18;7.73;;;6.10;;
15567;SDS011;7885;42.596;23.044;2024-03-25T02:55:50;8.33;;;6.80;;
15567;SDS011;7885;42.596;23.044;2024-03-25T02:58:15;8.23;;;6.20;;
15567;SDS011;7885;42.596;23.044;2024-03-25T03:00:43;8.10;;;6.20;;
15567;SDS011;7885;42.596;23.044;2024-03-25T03:03:09;6.87;;;6.13;;
15567;SDS011;7885;42.596;23.044;2024-03-25T03:05:36;8.93;;;7.20;;
15567;SDS011;7885;42.596;23.044;2024-03-25T03:08:01;6.77;;;5.53;;
15567;SDS011;7885;42.596;23.044;2024-03-25T03:10:28;3.87;;;3.30;;
15567;SDS011;7885;42.596;23.044;2024-03-25T03:12:54;3.97;;;3.00;;
15567;SDS011;7885;42.596;23.044;2024-03-25T03:15:21;2.90;;;2.57;;
15567;SDS011;7885;42.596;23.044;2024-03-25T03:17:48;3.60;;;2.63;;
15567;SDS011;7885;42.596;23.044;2024-03-25T03:20:15;2.50;;;2.20;;
15567;SDS011;7885;42.596;23.044;2024-03-25T03:22:40;2.20;;;2.00;;
15567;SDS011;7885;42.596;23.044;2024-03-25T03:25:07;3.40;;;2.43;;
15567;SDS011;7885;42.596;23.044;2024-03-25T03:27:33;2.03;;;1.40;;
15567;SDS011;7885;42.596;23.044;2024-03-25T03:30:00;2.00;;;1.80;;
15567;SDS011;7885;42.596;23.044;2024-03-25T03:32:26;3.43;;;2.50;;
15567;SDS011;7885;42.596;23.044;2024-03-25T03:34:54;1.23;;;1.13;;
15567;SDS011;7885;42.596;23.044;2024-03-25T03:37:20;1.53;;;1.40;;
15567;SDS011;7885;42.596;23.044;2024-03-25T03:39:46;1.37;;;1.23;;
15567;SDS011;7885;42.596;23.044;2024-03-25T03:42:12;1.40;;;1.30;;
15567;SDS011;7885;42.596;23.044;2024-03-25T03:44:39;1.70;;;1.60;;
15567;SDS011;7885;42.596;23.044;2024-03-25T03:47:04;1.67;;;1.50;;
15567;SDS011;7885;42.596;23.044;2024-03-25T03:49:31;1.50;;;1.40;;
15567;SDS011;7885;42.596;23.044;2024-03-25T03:51:58;1.20;;;0.90;;
15567;SDS011;7885;42.596;23.044;2024-03-25T03:54:25;1.33;;;1.10;;
15567;SDS011;7885;42.596;23.044;2024-03-25T03:56:51;1.83;;;1.70;;
15567;SDS011;7885;42.596;23.044;2024-03-25T03:59:17;6.77;;;5.57;;
15567;SDS011;7885;42.596;23.044;2024-03-25T04:01:43;6.60;;;4.97;;
15567;SDS011;7885;42.596;23.044;2024-03-25T04:04:10;5.53;;;4.20;;
15567;SDS011;7885;42.596;23.044;2024-03-25T04:06:36;4.90;;;4.40;;
15567;SDS011;7885;42.596;23.044;2024-03-25T04:09:06;3.90;;;3.57;;
15567;SDS011;7885;42.596;23.044;2024-03-25T04:11:35;2.23;;;2.03;;
15567;SDS011;7885;42.596;23.044;2024-03-25T04:14:01;2.20;;;2.00;;
15567;SDS011;7885;42.596;23.044;2024-03-25T04:16:28;4.13;;;3.73;;
15567;SDS011;7885;42.596;23.044;2024-03-25T04:18:55;2.77;;;2.53;;
15567;SDS011;7885;42.596;23.044;2024-03-25T04:21:21;3.07;;;2.77;;
15567;SDS011;7885;42.596;23.044;2024-03-25T04:23:48;3.13;;;2.90;;
15567;SDS011;7885;42.596;23.044;2024-03-25T04:26:18;2.40;;;2.20;;
15567;SDS011;7885;42.596;23.044;2024-03-25T04:28:44;1.50;;;1.40;;
15567;SDS011;7885;42.596;23.044;2024-03-25T04:31:10;1.63;;;1.53;;
15567;SDS011;7885;42.596;23.044;2024-03-25T04:33:41;1.70;;;1.60;;
15567;SDS011;7885;42.596;23.044;2024-03-25T04:36:07;1.73;;;1.63;;
15567;SDS011;7885;42.596;23.044;2024-03-25T04:38:33;2.07;;;1.87;;
15567;SDS011;7885;42.596;23.044;2024-03-25T04:40:59;6.87;;;5.90;;
15567;SDS011;7885;42.596;23.044;2024-03-25T04:43:26;3.17;;;2.07;;
15567;SDS011;7885;42.596;23.044;2024-03-25T04:45:55;2.43;;;2.00;;
15567;SDS011;7885;42.596;23.044;2024-03-25T04:48:20;2.43;;;2.23;;
15567;SDS011;7885;42.596;23.044;2024-03-25T04:50:49;3.07;;;2.37;;
15567;SDS011;7885;42.596;23.044;2024-03-25T04:53:15;2.97;;;2.40;;
15567;SDS011;7885;42.596;23.044;2024-03-25T04:55:40;2.57;;;2.37;;
15567;SDS011;7885;42.596;23.044;2024-03-25T04:58:06;3.10;;;2.80;;
15567;SDS011;7885;42.596;23.044;2024-03-25T05:00:33;3.77;;;3.20;;
15567;SDS011;7885;42.596;23.044;2024-03-25T05:02:59;7.50;;;6.07;;
15567;SDS011;7885;42.596;23.044;2024-03-25T05:05:25;5.87;;;5.20;;
15567;SDS011;7885;42.596;23.044;2024-03-25T05:07:51;6.37;;;5.27;;
15567;SDS011;7885;42.596;23.044;2024-03-25T05:10:16;5.20;;;4.00;;
15567;SDS011;7885;42.596;23.044;2024-03-25T05:12:42;6.63;;;5.47;;
15567;SDS011;7885;42.596;23.044;2024-03-25T05:15:18;4.17;;;3.77;;
15567;SDS011;7885;42.596;23.044;2024-03-25T05:17:47;5.00;;;4.27;;
15567;SDS011;7885;42.596;23.044;2024-03-25T05:20:13;6.43;;;5.77;;
15567;SDS011;7885;42.596;23.044;2024-03-25T05:22:39;7.20;;;5.50;;
15567;SDS011;7885;42.596;23.044;2024-03-25T05:25:05;5.87;;;5.27;;
15567;SDS011;7885;42.596;23.044;2024-03-25T05:27:31;5.53;;;4.97;;
15567;SDS011;7885;42.596;23.044;2024-03-25T05:29:57;5.90;;;5.30;;
15567;SDS011;7885;42.596;23.044;2024-03-25T05:32:23;5.80;;;5.20;;
15567;SDS011;7885;42.596;23.044;2024-03-25T05:34:50;5.57;;;5.07;;
15567;SDS011;7885;42.596;23.044;2024-03-25T05:37:15;8.47;;;5.27;;
15567;SDS011;7885;42.596;23.044;2024-03-25T05:39:41;6.47;;;5.30;;
15567;SDS011;7885;42.596;23.044;2024-03-25T05:42:07;7.40;;;5.70;;
15567;SDS011;7885;42.596;23.044;2024-03-25T05:44:33;6.90;;;6.20;;
15567;SDS011;7885;42.596;23.044;2024-03-25T05:46:58;8.37;;;6.37;;
15567;SDS011;7885;42.596;23.044;2024-03-25T05:49:24;7.07;;;5.67;;
15567;SDS011;7885;42.596;23.044;2024-03-25T05:51:51;7.00;;;6.27;;
15567;SDS011;7885;42.596;23.044;2024-03-25T05:54:17;9.40;;;7.33;;
15567;SDS011;7885;42.596;23.044;2024-03-25T05:56:42;9.07;;;7.27;;
15567;SDS011;7885;42.596;23.044;2024-03-25T05:59:08;8.57;;;7.23;;
15567;SDS011;7885;42.596;23.044;2024-03-25T06:01:34;8.37;;;7.47;;
15567;SDS011;7885;42.596;23.044;2024-03-25T06:04:00;7.87;;;7.07;;
15567;SDS011;7885;42.596;23.044;2024-03-25T06:06:26;7.97;;;7.17;;
15567;SDS011;7885;42.596;23.044;2024-03-25T06:08:53;12.20;;;7.40;;
15567;SDS011;7885;42.596;23.044;2024-03-25T06:11:18;8.80;;;7.53;;
15567;SDS011;7885;42.596;23.044;2024-03-25T06:13:47;8.27;;;7.47;;
15567;SDS011;7885;42.596;23.044;2024-03-25T06:16:13;8.63;;;7.73;;
15567;SDS011;7885;42.596;23.044;2024-03-25T06:18:39;10.43;;;9.37;;
15567;SDS011;7885;42.596;23.044;2024-03-25T06:21:05;10.70;;;9.30;;
15567;SDS011;7885;42.596;23.044;2024-03-25T06:23:31;7.80;;;7.00;;
15567;SDS011;7885;42.596;23.044;2024-03-25T06:25:58;8.13;;;7.30;;
15567;SDS011;7885;42.596;23.044;2024-03-25T06:28:24;8.87;;;7.43;;
15567;SDS011;7885;42.596;23.044;2024-03-25T06:30:50;8.87;;;7.87;;
15567;SDS011;7885;42.596;23.044;2024-03-25T06:33:35;10.47;;;8.30;;
15567;SDS011;7885;42.596;23.044;2024-03-25T06:36:19;9.03;;;7.43;;
15567;SDS011;7885;42.596;23.044;2024-03-25T06:38:45;10.30;;;7.77;;
15567;SDS011;7885;42.596;23.044;2024-03-25T06:41:13;7.73;;;6.80;;
15567;SDS011;7885;42.596;23.044;2024-03-25T06:43:39;7.97;;;7.13;;
15567;SDS011;7885;42.596;23.044;2024-03-25T06:46:05;9.43;;;7.93;;
15567;SDS011;7885;42.596;23.044;2024-03-25T06:55:21;9.47;;;7.47;;
15567;SDS011;7885;42.596;23.044;2024-03-25T06:57:48;10.77;;;8.57;;
15567;SDS011;7885;42.596;23.044;2024-03-25T07:00:14;8.43;;;7.63;;
15567;SDS011;7885;42.596;23.044;2024-03-25T07:02:40;8.30;;;7.50;;
15567;SDS011;7885;42.596;23.044;2024-03-25T07:05:06;9.87;;;8.97;;
15567;SDS011;7885;42.596;23.044;2024-03-25T07:10:54;8.40;;;7.57;;
15567;SDS011;7885;42.596;23.044;2024-03-25T07:13:21;8.40;;;7.33;;
15567;SDS011;7885;42.596;23.044;2024-03-25T07:15:48;7.50;;;6.80;;
15567;SDS011;7885;42.596;23.044;2024-03-25T07:18:14;7.30;;;6.40;;
15567;SDS011;7885;42.596;23.044;2024-03-25T07:20:40;7.87;;;7.17;;
15567;SDS011;7885;42.596;23.044;2024-03-25T07:23:07;8.67;;;7.77;;
15567;SDS011;7885;42.596;23.044;2024-03-25T07:25:32;6.63;;;6.03;;
15567;SDS011;7885;42.596;23.044;2024-03-25T07:27:58;6.37;;;5.87;;
15567;SDS011;7885;42.596;23.044;2024-03-25T07:30:26;6.30;;;5.80;;
15567;SDS011;7885;42.596;23.044;2024-03-25T07:32:53;7.10;;;6.50;;
15567;SDS011;7885;42.596;23.044;2024-03-25T07:35:19;7.50;;;6.80;;
15567;SDS011;7885;42.596;23.044;2024-03-25T07:37:45;6.57;;;5.97;;
15567;SDS011;7885;42.596;23.044;2024-03-25T07:40:10;7.10;;;6.50;;
15567;SDS011;7885;42.596;23.044;2024-03-25T07:42:37;6.07;;;5.57;;
15567;SDS011;7885;42.596;23.044;2024-03-25T07:45:03;5.80;;;5.30;;
15567;SDS011;7885;42.596;23.044;2024-03-25T07:47:31;7.60;;;6.90;;
15567;SDS011;7885;42.596;23.044;2024-03-25T07:49:59;6.63;;;6.03;;
15567;SDS011;7885;42.596;23.044;2024-03-25T07:52:31;8.87;;;7.50;;
15567;SDS011;7885;42.596;23.044;2024-03-25T07:58:19;6.60;;;6.00;;
15567;SDS011;7885;42.596;23.044;2024-03-25T08:00:44;7.80;;;6.70;;
15567;SDS011;7885;42.596;23.044;2024-03-25T08:03:11;8.20;;;7.40;;
15567;SDS011;7885;42.596;23.044;2024-03-25T08:05:37;6.43;;;5.93;;
15567;SDS011;7885;42.596;23.044;2024-03-25T08:08:03;6.30;;;5.80;;
15567;SDS011;7885;42.596;23.044;2024-03-25T08:10:29;7.03;;;6.40;;
15567;SDS011;7885;42.596;23.044;2024-03-25T08:12:55;5.80;;;5.30;;
15567;SDS011;7885;42.596;23.044;2024-03-25T08:15:21;5.90;;;5.40;;
15567;SDS011;7885;42.596;23.044;2024-03-25T08:17:47;6.40;;;5.90;;
15567;SDS011;7885;42.596;23.044;2024-03-25T08:20:14;6.30;;;5.80;;
15567;SDS011;7885;42.596;23.044;2024-03-25T08:26:02;6.83;;;5.87;;
15567;SDS011;7885;42.596;23.044;2024-03-25T08:28:28;7.20;;;6.50;;
15567;SDS011;7885;42.596;23.044;2024-03-25T08:30:53;10.80;;;8.57;;
15567;SDS011;7885;42.596;23.044;2024-03-25T08:33:19;8.57;;;7.77;;
15567;SDS011;7885;42.596;23.044;2024-03-25T08:35:46;6.90;;;6.30;;
15567;SDS011;7885;42.596;23.044;2024-03-25T08:38:12;8.13;;;7.33;;
15567;SDS011;7885;42.596;23.044;2024-03-25T08:40:38;9.07;;;8.17;;
15567;SDS011;7885;42.596;23.044;2024-03-25T08:43:03;7.40;;;6.70;;
15567;SDS011;7885;42.596;23.044;2024-03-25T08:45:29;7.43;;;6.77;;
15567;SDS011;7885;42.596;23.044;2024-03-25T08:47:55;7.40;;;6.73;;
15567;SDS011;7885;42.596;23.044;2024-03-25T08:50:20;9.27;;;8.20;;
15567;SDS011;7885;42.596;23.044;2024-03-25T08:52:47;7.60;;;6.90;;
15567;SDS011;7885;42.596;23.044;2024-03-25T08:55:13;7.10;;;6.50;;
15567;SDS011;7885;42.596;23.044;2024-03-25T08:57:39;7.20;;;6.60;;
15567;SDS011;7885;42.596;23.044;2024-03-25T09:00:05;7.27;;;6.57;;
15567;SDS011;7885;42.596;23.044;2024-03-25T09:02:32;7.27;;;6.43;;
15567;SDS011;7885;42.596;23.044;2024-03-25T09:04:58;8.33;;;7.53;;
15567;SDS011;7885;42.596;23.044;2024-03-25T09:07:24;7.57;;;6.87;;
15567;SDS011;7885;42.596;23.044;2024-03-25T09:09:51;7.53;;;6.83;;
15567;SDS011;7885;42.596;23.044;2024-03-25T09:12:35;8.60;;;7.80;;
15567;SDS011;7885;42.596;23.044;2024-03-25T09:15:01;6.40;;;5.90;;
15567;SDS011;7885;42.596;23.044;2024-03-25T09:17:26;7.13;;;6.53;;
15567;SDS011;7885;42.596;23.044;2024-03-25T09:19:52;7.70;;;6.87;;
15567;SDS011;7885;42.596;23.044;2024-03-25T09:22:18;7.30;;;6.70;;
15567;SDS011;7885;42.596;23.044;2024-03-25T09:24:44;6.37;;;5.87;;
15567;SDS011;7885;42.596;23.044;2024-03-25T09:27:11;7.13;;;6.50;;
15567;SDS011;7885;42.596;23.044;2024-03-25T09:29:37;7.27;;;6.67;;
15567;SDS011;7885;42.596;23.044;2024-03-25T09:32:03;6.30;;;5.80;;
15567;SDS011;7885;42.596;23.044;2024-03-25T09:34:29;6.57;;;5.90;;
15567;SDS011;7885;42.596;23.044;2024-03-25T09:36:55;5.70;;;5.23;;
15567;SDS011;7885;42.596;23.044;2024-03-25T09:39:20;9.07;;;8.27;;
15567;SDS011;7885;42.596;23.044;2024-03-25T09:41:46;5.40;;;5.00;;
15567;SDS011;7885;42.596;23.044;2024-03-25T09:44:17;6.07;;;5.57;;
15567;SDS011;7885;42.596;23.044;2024-03-25T09:46:44;5.87;;;5.37;;
15567;SDS011;7885;42.596;23.044;2024-03-25T09:49:10;4.93;;;4.53;;
15567;SDS011;7885;42.596;23.044;2024-03-25T09:51:36;5.73;;;5.33;;
15567;SDS011;7885;42.596;23.044;2024-03-25T09:54:02;5.77;;;5.27;;
15567;SDS011;7885;42.596;23.044;2024-03-25T09:56:28;5.10;;;4.63;;
15567;SDS011;7885;42.596;23.044;2024-03-25T09:58:54;5.17;;;4.73;;
15567;SDS011;7885;42.596;23.044;2024-03-25T10:01:21;5.10;;;4.70;;
15567;SDS011;7885;42.596;23.044;2024-03-25T10:03:48;4.57;;;4.27;;
15567;SDS011;7885;42.596;23.044;2024-03-25T10:06:13;4.27;;;3.87;;
15567;SDS011;7885;42.596;23.044;2024-03-25T10:08:39;5.50;;;5.10;;
15567;SDS011;7885;42.596;23.044;2024-03-25T10:11:05;5.37;;;4.97;;
15567;SDS011;7885;42.596;23.044;2024-03-25T10:13:31;5.73;;;5.13;;
15567;SDS011;7885;42.596;23.044;2024-03-25T10:15:56;4.80;;;4.40;;
15567;SDS011;7885;42.596;23.044;2024-03-25T10:18:24;4.50;;;4.10;;
15567;SDS011;7885;42.596;23.044;2024-03-25T10:20:50;5.10;;;4.60;;
15567;SDS011;7885;42.596;23.044;2024-03-25T10:23:19;5.60;;;5.10;;
15567;SDS011;7885;42.596;23.044;2024-03-25T10:25:47;5.37;;;4.87;;
15567;SDS011;7885;42.596;23.044;2024-03-25T10:28:13;5.90;;;5.40;;
15567;SDS011;7885;42.596;23.044;2024-03-25T10:30:39;6.90;;;6.30;;
15567;SDS011;7885;42.596;23.044;2024-03-25T10:39:51;6.43;;;5.83;;
15567;SDS011;7885;42.596;23.044;2024-03-25T10:42:22;4.43;;;4.03;;
15567;SDS011;7885;42.596;23.044;2024-03-25T10:44:48;5.23;;;4.80;;
15567;SDS011;7885;42.596;23.044;2024-03-25T10:47:16;5.20;;;4.37;;
15567;SDS011;7885;42.596;23.044;2024-03-25T10:49:46;4.90;;;4.50;;
15567;SDS011;7885;42.596;23.044;2024-03-25T10:52:14;7.67;;;6.37;;
15567;SDS011;7885;42.596;23.044;2024-03-25T10:54:41;5.87;;;5.37;;
15567;SDS011;7885;42.596;23.044;2024-03-25T10:57:09;6.07;;;5.47;;
15567;SDS011;7885;42.596;23.044;2024-03-25T10:59:35;5.10;;;4.70;;
15567;SDS011;7885;42.596;23.044;2024-03-25T11:02:03;6.10;;;5.50;;
15567;SDS011;7885;42.596;23.044;2024-03-25T11:04:29;6.43;;;5.87;;
15567;SDS011;7885;42.596;23.044;2024-03-25T11:07:05;6.33;;;5.73;;
15567;SDS011;7885;42.596;23.044;2024-03-25T11:09:32;5.93;;;5.33;;
15567;SDS011;7885;42.596;23.044;2024-03-25T11:11:58;4.70;;;4.00;;
15567;SDS011;7885;42.596;23.044;2024-03-25T11:14:26;5.00;;;3.97;;
15567;SDS011;7885;42.596;23.044;2024-03-25T11:16:53;5.00;;;4.60;;
15567;SDS011;7885;42.596;23.044;2024-03-25T11:19:20;5.00;;;4.50;;
15567;SDS011;7885;42.596;23.044;2024-03-25T11:21:50;3.47;;;3.17;;
15567;SDS011;7885;42.596;23.044;2024-03-25T11:24:25;6.20;;;5.27;;
15567;SDS011;7885;42.596;23.044;2024-03-25T11:26:52;5.80;;;4.23;;
15567;SDS011;7885;42.596;23.044;2024-03-25T11:29:18;4.90;;;4.40;;
15567;SDS011;7885;42.596;23.044;2024-03-25T11:31:45;4.50;;;4.10;;
15567;SDS011;7885;42.596;23.044;2024-03-25T11:34:14;5.20;;;4.80;;
15567;SDS011;7885;42.596;23.044;2024-03-25T11:36:40;4.97;;;4.47;;
15567;SDS011;7885;42.596;23.044;2024-03-25T11:39:06;5.13;;;4.63;;
15567;SDS011;7885;42.596;23.044;2024-03-25T11:41:34;5.20;;;4.70;;
15567;SDS011;7885;42.596;23.044;2024-03-25T11:44:04;4.77;;;4.07;;
15567;SDS011;7885;42.596;23.044;2024-03-25T11:46:30;4.30;;;3.90;;
15567;SDS011;7885;42.596;23.044;2024-03-25T11:48:58;4.00;;;3.60;;
15567;SDS011;7885;42.596;23.044;2024-03-25T11:51:23;4.43;;;4.03;;
15567;SDS011;7885;42.596;23.044;2024-03-25T11:53:49;2.90;;;2.60;;
15567;SDS011;7885;42.596;23.044;2024-03-25T11:56:15;5.43;;;4.20;;
15567;SDS011;7885;42.596;23.044;2024-03-25T11:58:41;3.73;;;3.43;;
15567;SDS011;7885;42.596;23.044;2024-03-25T12:01:06;4.30;;;3.90;;
15567;SDS011;7885;42.596;23.044;2024-03-25T12:03:33;5.30;;;3.90;;
15567;SDS011;7885;42.596;23.044;2024-03-25T12:06:00;4.33;;;3.93;;
15567;SDS011;7885;42.596;23.044;2024-03-25T12:08:28;6.50;;;5.77;;
15567;SDS011;7885;42.596;23.044;2024-03-25T12:10:54;3.93;;;3.63;;
15567;SDS011;7885;42.596;23.044;2024-03-25T12:13:38;4.50;;;4.20;;
15567;SDS011;7885;42.596;23.044;2024-03-25T12:16:05;5.37;;;4.23;;
15567;SDS011;7885;42.596;23.044;2024-03-25T12:18:31;5.00;;;4.50;;
15567;SDS011;7885;42.596;23.044;2024-03-25T12:20:57;5.10;;;4.60;;
15567;SDS011;7885;42.596;23.044;2024-03-25T12:23:27;4.27;;;3.87;;
15567;SDS011;7885;42.596;23.044;2024-03-25T12:25:54;4.53;;;4.13;;
15567;SDS011;7885;42.596;23.044;2024-03-25T12:28:20;2.73;;;2.53;;
15567;SDS011;7885;42.596;23.044;2024-03-25T12:30:52;2.80;;;2.60;;
15567;SDS011;7885;42.596;23.044;2024-03-25T12:33:19;3.20;;;2.90;;
15567;SDS011;7885;42.596;23.044;2024-03-25T12:35:48;2.83;;;2.63;;
15567;SDS011;7885;42.596;23.044;2024-03-25T12:38:21;3.60;;;3.30;;
15567;SDS011;7885;42.596;23.044;2024-03-25T12:40:49;4.20;;;3.80;;
15567;SDS011;7885;42.596;23.044;2024-03-25T12:43:15;3.43;;;3.13;;
15567;SDS011;7885;42.596;23.044;2024-03-25T12:45:44;4.53;;;4.13;;
15567;SDS011;7885;42.596;23.044;2024-03-25T12:48:10;2.90;;;2.70;;
15567;SDS011;7885;42.596;23.044;2024-03-25T12:50:36;3.67;;;3.37;;
15567;SDS011;7885;42.596;23.044;2024-03-25T12:53:03;3.33;;;3.03;;
15567;SDS011;7885;42.596;23.044;2024-03-25T12:55:29;3.10;;;2.90;;
15567;SDS011;7885;42.596;23.044;2024-03-25T12:57:56;3.43;;;3.13;;
15567;SDS011;7885;42.596;23.044;2024-03-25T13:00:22;3.27;;;2.97;;
15567;SDS011;7885;42.596;23.044;2024-03-25T13:02:47;3.27;;;2.60;;
15567;SDS011;7885;42.596;23.044;2024-03-25T13:05:14;2.07;;;1.97;;
15567;SDS011;7885;42.596;23.044;2024-03-25T13:07:42;2.90;;;2.70;;
15567;SDS011;7885;42.596;23.044;2024-03-25T13:10:10;2.37;;;2.17;;
15567;SDS011;7885;42.596;23.044;2024-03-25T13:12:36;2.93;;;2.73;;
15567;SDS011;7885;42.596;23.044;2024-03-25T13:15:03;2.77;;;2.40;;
15567;SDS011;7885;42.596;23.044;2024-03-25T13:17:30;3.20;;;2.10;;
15567;SDS011;7885;42.596;23.044;2024-03-25T13:19:55;3.63;;;2.90;;
15567;SDS011;7885;42.596;23.044;2024-03-25T13:22:21;4.00;;;3.60;;
15567;SDS011;7885;42.596;23.044;2024-03-25T13:24:47;2.03;;;1.83;;
15567;SDS011;7885;42.596;23.044;2024-03-25T13:27:13;2.27;;;2.07;;
15567;SDS011;7885;42.596;23.044;2024-03-25T13:29:39;3.00;;;2.60;;
15567;SDS011;7885;42.596;23.044;2024-03-25T13:32:06;1.80;;;1.70;;
15567;SDS011;7885;42.596;23.044;2024-03-25T13:34:31;2.10;;;1.90;;
15567;SDS011;7885;42.596;23.044;2024-03-25T13:36:57;2.13;;;1.93;;
15567;SDS011;7885;42.596;23.044;2024-03-25T13:39:23;2.00;;;1.90;;
15567;SDS011;7885;42.596;23.044;2024-03-25T13:41:49;3.43;;;3.10;;
15567;SDS011;7885;42.596;23.044;2024-03-25T13:44:14;2.43;;;2.23;;
15567;SDS011;7885;42.596;23.044;2024-03-25T13:46:40;2.37;;;2.17;;
15567;SDS011;7885;42.596;23.044;2024-03-25T13:49:07;3.03;;;2.20;;
15567;SDS011;7885;42.596;23.044;2024-03-25T13:51:36;4.77;;;3.10;;
15567;SDS011;7885;42.596;23.044;2024-03-25T13:54:02;4.80;;;3.80;;
15567;SDS011;7885;42.596;23.044;2024-03-25T13:56:28;2.50;;;2.30;;
15567;SDS011;7885;42.596;23.044;2024-03-25T13:58:53;2.97;;;2.70;;
15567;SDS011;7885;42.596;23.044;2024-03-25T14:01:19;3.03;;;2.70;;
15567;SDS011;7885;42.596;23.044;2024-03-25T14:04:01;4.73;;;4.00;;
15567;SDS011;7885;42.596;23.044;2024-03-25T14:06:28;3.43;;;3.07;;
15567;SDS011;7885;42.596;23.044;2024-03-25T14:08:54;2.97;;;2.60;;
15567;SDS011;7885;42.596;23.044;2024-03-25T14:11:20;4.20;;;3.80;;
15567;SDS011;7885;42.596;23.044;2024-03-25T14:13:45;5.83;;;4.30;;
15567;SDS011;7885;42.596;23.044;2024-03-25T14:16:11;3.87;;;3.40;;
15567;SDS011;7885;42.596;23.044;2024-03-25T14:18:38;6.23;;;5.37;;
15567;SDS011;7885;42.596;23.044;2024-03-25T14:21:11;4.90;;;4.00;;
15567;SDS011;7885;42.596;23.044;2024-03-25T14:23:38;3.17;;;2.63;;
15567;SDS011;7885;42.596;23.044;2024-03-25T14:26:04;6.33;;;5.70;;
15567;SDS011;7885;42.596;23.044;2024-03-25T14:28:29;8.67;;;7.27;;
15567;SDS011;7885;42.596;23.044;2024-03-25T14:30:55;5.50;;;4.40;;
15567;SDS011;7885;42.596;23.044;2024-03-25T14:33:24;7.60;;;5.03;;
15567;SDS011;7885;42.596;23.044;2024-03-25T14:35:50;6.57;;;5.47;;
15567;SDS011;7885;42.596;23.044;2024-03-25T14:38:15;3.87;;;2.97;;
15567;SDS011;7885;42.596;23.044;2024-03-25T14:40:42;2.83;;;2.60;;
15567;SDS011;7885;42.596;23.044;2024-03-25T14:43:08;3.83;;;3.17;;
15567;SDS011;7885;42.596;23.044;2024-03-25T14:45:40;6.40;;;4.90;;
15567;SDS011;7885;42.596;23.044;2024-03-25T14:48:14;3.73;;;2.57;;
15567;SDS011;7885;42.596;23.044;2024-03-25T14:50:40;2.80;;;2.07;;
15567;SDS011;7885;42.596;23.044;2024-03-25T14:53:06;2.23;;;2.03;;
15567;SDS011;7885;42.596;23.044;2024-03-25T14:55:31;2.67;;;2.43;;
15567;SDS011;7885;42.596;23.044;2024-03-25T14:57:59;2.00;;;1.80;;
15567;SDS011;7885;42.596;23.044;2024-03-25T15:00:30;1.90;;;1.80;;
15567;SDS011;7885;42.596;23.044;2024-03-25T15:02:56;2.00;;;1.80;;
15567;SDS011;7885;42.596;23.044;2024-03-25T15:05:22;2.33;;;2.23;;
15567;SDS011;7885;42.596;23.044;2024-03-25T15:07:48;4.30;;;2.87;;
15567;SDS011;7885;42.596;23.044;2024-03-25T15:10:16;6.80;;;4.10;;
15567;SDS011;7885;42.596;23.044;2024-03-25T15:12:42;3.83;;;3.33;;
15567;SDS011;7885;42.596;23.044;2024-03-25T15:15:09;8.27;;;6.10;;
15567;SDS011;7885;42.596;23.044;2024-03-25T15:17:35;7.80;;;6.80;;
15567;SDS011;7885;42.596;23.044;2024-03-25T15:20:01;7.07;;;6.13;;